sensor_id;sensor_type;location;lat;lon;timestamp;pressure;altitude;pressure_sealevel;temperature;humidity
32733;BME280;11867;51.198;11.966;2023-06-10T00:00:55;100407.47;;;18.10;82.58
32733;BME280;11867;51.198;11.966;2023-06-10T00:02:18;100404.31;;;18.38;81.47
32733;BME280;11867;51.198;11.966;2023-06-10T00:03:41;100407.25;;;18.33;81.78
32733;BME280;11867;51.198;11.966;2023-06-10T00:05:06;100408.66;;;17.92;83.28
32733;BME280;11867;51.198;11.966;2023-06-10T00:06:30;100413.94;;;18.23;82.10
32733;BME280;11867;51.198;11.966;2023-06-10T00:07:57;100403.59;;;18.50;80.79
32733;BME280;11867;51.198;11.966;2023-06-10T00:09:20;100405.78;;;18.65;79.93
32733;BME280;11867;51.198;11.966;2023-06-10T00:10:42;100405.59;;;18.79;79.31
32733;BME280;11867;51.198;11.966;2023-06-10T00:12:06;100413.81;;;18.49;80.89
32733;BME280;11867;51.198;11.966;2023-06-10T00:13:28;100413.03;;;18.49;81.17
32733;BME280;11867;51.198;11.966;2023-06-10T00:14:53;100410.00;;;18.33;81.41
32733;BME280;11867;51.198;11.966;2023-06-10T00:16:15;100409.63;;;18.43;81.45
32733;BME280;11867;51.198;11.966;2023-06-10T00:17:39;100401.97;;;18.49;80.01
32733;BME280;11867;51.198;11.966;2023-06-10T00:19:03;100402.72;;;18.58;78.39
32733;BME280;11867;51.198;11.966;2023-06-10T00:20:25;100402.03;;;18.70;77.29
32733;BME280;11867;51.198;11.966;2023-06-10T00:21:48;100401.13;;;18.87;76.85
32733;BME280;11867;51.198;11.966;2023-06-10T00:23:10;100395.91;;;18.94;75.65
32733;BME280;11867;51.198;11.966;2023-06-10T00:24:33;100401.91;;;18.96;74.52
32733;BME280;11867;51.198;11.966;2023-06-10T00:25:55;100414.16;;;19.07;74.56
32733;BME280;11867;51.198;11.966;2023-06-10T00:27:18;100411.66;;;18.93;74.82
32733;BME280;11867;51.198;11.966;2023-06-10T00:28:40;100407.59;;;19.12;73.85
32733;BME280;11867;51.198;11.966;2023-06-10T00:30:05;100413.56;;;19.23;73.59
32733;BME280;11867;51.198;11.966;2023-06-10T00:31:28;100408.63;;;19.28;73.62
32733;BME280;11867;51.198;11.966;2023-06-10T00:32:52;100409.63;;;19.24;73.17
32733;BME280;11867;51.198;11.966;2023-06-10T00:34:16;100407.22;;;19.22;72.98
32733;BME280;11867;51.198;11.966;2023-06-10T00:35:39;100415.16;;;19.03;73.81
32733;BME280;11867;51.198;11.966;2023-06-10T00:37:02;100410.38;;;19.12;73.31
32733;BME280;11867;51.198;11.966;2023-06-10T00:38:24;100412.63;;;19.19;73.34
32733;BME280;11867;51.198;11.966;2023-06-10T00:39:46;100414.50;;;19.27;72.44
32733;BME280;11867;51.198;11.966;2023-06-10T00:41:09;100416.41;;;19.35;72.30
32733;BME280;11867;51.198;11.966;2023-06-10T00:42:32;100409.97;;;19.22;72.75
32733;BME280;11867;51.198;11.966;2023-06-10T00:43:55;100415.16;;;19.24;72.54
32733;BME280;11867;51.198;11.966;2023-06-10T00:45:19;100420.97;;;19.31;72.97
32733;BME280;11867;51.198;11.966;2023-06-10T00:46:41;100416.03;;;19.36;72.56
32733;BME280;11867;51.198;11.966;2023-06-10T00:48:04;100408.91;;;19.35;73.44
32733;BME280;11867;51.198;11.966;2023-06-10T00:49:27;100419.09;;;19.23;74.30
32733;BME280;11867;51.198;11.966;2023-06-10T00:50:50;100408.22;;;19.18;74.51
32733;BME280;11867;51.198;11.966;2023-06-10T00:52:14;100409.22;;;18.92;75.41
32733;BME280;11867;51.198;11.966;2023-06-10T00:53:36;100419.59;;;18.95;74.59
32733;BME280;11867;51.198;11.966;2023-06-10T00:55:01;100420.06;;;18.97;75.36
32733;BME280;11867;51.198;11.966;2023-06-10T00:56:24;100419.28;;;18.97;75.43
32733;BME280;11867;51.198;11.966;2023-06-10T00:57:47;100416.78;;;19.04;74.79
32733;BME280;11867;51.198;11.966;2023-06-10T00:59:11;100416.75;;;18.83;75.51
32733;BME280;11867;51.198;11.966;2023-06-10T01:00:34;100424.47;;;18.98;75.16
32733;BME280;11867;51.198;11.966;2023-06-10T01:01:58;100423.13;;;19.04;75.05
32733;BME280;11867;51.198;11.966;2023-06-10T01:03:22;100427.78;;;19.12;74.61
32733;BME280;11867;51.198;11.966;2023-06-10T01:04:44;100421.78;;;19.10;74.84
32733;BME280;11867;51.198;11.966;2023-06-10T01:06:18;100422.25;;;19.12;75.03
32733;BME280;11867;51.198;11.966;2023-06-10T01:07:49;100417.78;;;18.99;75.00
32733;BME280;11867;51.198;11.966;2023-06-10T01:09:22;100416.66;;;19.00;74.61
32733;BME280;11867;51.198;11.966;2023-06-10T01:10:49;100408.69;;;18.99;74.89
32733;BME280;11867;51.198;11.966;2023-06-10T01:12:18;100409.78;;;19.06;74.78
32733;BME280;11867;51.198;11.966;2023-06-10T01:13:41;100421.66;;;19.07;74.80
32733;BME280;11867;51.198;11.966;2023-06-10T01:15:05;100428.78;;;19.08;75.17
32733;BME280;11867;51.198;11.966;2023-06-10T01:16:29;100427.81;;;18.83;76.29
32733;BME280;11867;51.198;11.966;2023-06-10T01:17:54;100421.94;;;18.84;76.28
32733;BME280;11867;51.198;11.966;2023-06-10T01:19:16;100417.31;;;18.97;75.65
32733;BME280;11867;51.198;11.966;2023-06-10T01:20:41;100411.78;;;18.97;75.50
32733;BME280;11867;51.198;11.966;2023-06-10T01:22:06;100413.69;;;19.05;75.26
32733;BME280;11867;51.198;11.966;2023-06-10T01:23:29;100413.97;;;18.91;75.88
32733;BME280;11867;51.198;11.966;2023-06-10T01:24:52;100414.91;;;18.95;75.90
32733;BME280;11867;51.198;11.966;2023-06-10T01:26:15;100408.38;;;19.00;76.02
32733;BME280;11867;51.198;11.966;2023-06-10T01:27:40;100414.69;;;19.01;76.17
32733;BME280;11867;51.198;11.966;2023-06-10T01:29:07;100416.84;;;18.95;75.82
32733;BME280;11867;51.198;11.966;2023-06-10T01:30:37;100423.13;;;19.04;75.28
32733;BME280;11867;51.198;11.966;2023-06-10T01:32:06;100431.41;;;19.04;75.45
32733;BME280;11867;51.198;11.966;2023-06-10T01:33:34;100433.25;;;18.62;78.10
32733;BME280;11867;51.198;11.966;2023-06-10T01:34:57;100430.38;;;18.49;78.74
32733;BME280;11867;51.198;11.966;2023-06-10T01:36:21;100432.44;;;18.61;78.41
32733;BME280;11867;51.198;11.966;2023-06-10T01:37:48;100428.78;;;18.48;78.34
32733;BME280;11867;51.198;11.966;2023-06-10T01:39:14;100431.53;;;18.48;78.09
32733;BME280;11867;51.198;11.966;2023-06-10T01:40:39;100433.47;;;18.48;77.87
32733;BME280;11867;51.198;11.966;2023-06-10T01:42:02;100424.88;;;18.49;78.33
32733;BME280;11867;51.198;11.966;2023-06-10T01:43:26;100424.63;;;18.33;78.89
32733;BME280;11867;51.198;11.966;2023-06-10T01:44:49;100429.59;;;18.49;78.89
32733;BME280;11867;51.198;11.966;2023-06-10T01:46:12;100431.66;;;18.52;79.03
32733;BME280;11867;51.198;11.966;2023-06-10T01:47:35;100430.66;;;18.65;78.52
32733;BME280;11867;51.198;11.966;2023-06-10T01:48:57;100425.81;;;18.53;78.97
32733;BME280;11867;51.198;11.966;2023-06-10T01:50:20;100429.38;;;18.54;78.41
32733;BME280;11867;51.198;11.966;2023-06-10T01:51:42;100430.53;;;18.53;79.00
32733;BME280;11867;51.198;11.966;2023-06-10T01:53:06;100422.53;;;18.60;78.74
32733;BME280;11867;51.198;11.966;2023-06-10T01:54:29;100433.72;;;18.64;78.60
32733;BME280;11867;51.198;11.966;2023-06-10T01:55:51;100429.75;;;18.44;78.37
32733;BME280;11867;51.198;11.966;2023-06-10T01:57:14;100431.28;;;18.32;79.24
32733;BME280;11867;51.198;11.966;2023-06-10T01:58:37;100435.44;;;18.47;78.88
32733;BME280;11867;51.198;11.966;2023-06-10T01:59:59;100428.78;;;18.40;79.51
32733;BME280;11867;51.198;11.966;2023-06-10T02:01:22;100432.03;;;18.42;79.44
32733;BME280;11867;51.198;11.966;2023-06-10T02:02:44;100446.47;;;18.09;80.64
32733;BME280;11867;51.198;11.966;2023-06-10T02:04:07;100445.00;;;18.11;80.28
32733;BME280;11867;51.198;11.966;2023-06-10T02:05:30;100445.38;;;17.92;81.16
32733;BME280;11867;51.198;11.966;2023-06-10T02:06:52;100445.97;;;18.07;80.67
32733;BME280;11867;51.198;11.966;2023-06-10T02:08:16;100446.81;;;17.99;81.15
32733;BME280;11867;51.198;11.966;2023-06-10T02:09:38;100447.59;;;17.82;82.22
32733;BME280;11867;51.198;11.966;2023-06-10T02:11:01;100452.03;;;17.83;82.43
32733;BME280;11867;51.198;11.966;2023-06-10T02:12:23;100443.25;;;17.72;82.79
32733;BME280;11867;51.198;11.966;2023-06-10T02:13:45;100440.81;;;17.97;81.85
32733;BME280;11867;51.198;11.966;2023-06-10T02:15:08;100455.22;;;18.02;81.57
32733;BME280;11867;51.198;11.966;2023-06-10T02:16:31;100452.47;;;17.93;82.14
32733;BME280;11867;51.198;11.966;2023-06-10T02:17:53;100447.78;;;17.85;82.42
32733;BME280;11867;51.198;11.966;2023-06-10T02:19:17;100445.66;;;17.73;82.62
32733;BME280;11867;51.198;11.966;2023-06-10T02:20:43;100446.84;;;17.55;83.65
32733;BME280;11867;51.198;11.966;2023-06-10T02:22:06;100447.81;;;17.68;83.44
32733;BME280;11867;51.198;11.966;2023-06-10T02:23:30;100444.03;;;17.81;82.96
32733;BME280;11867;51.198;11.966;2023-06-10T02:24:52;100449.75;;;17.59;83.80
32733;BME280;11867;51.198;11.966;2023-06-10T02:26:15;100457.19;;;17.75;83.40
32733;BME280;11867;51.198;11.966;2023-06-10T02:27:37;100452.81;;;17.48;84.64
32733;BME280;11867;51.198;11.966;2023-06-10T02:28:59;100463.50;;;17.24;85.80
32733;BME280;11867;51.198;11.966;2023-06-10T02:30:22;100456.56;;;17.35;85.25
32733;BME280;11867;51.198;11.966;2023-06-10T02:31:44;100452.97;;;17.17;86.03
32733;BME280;11867;51.198;11.966;2023-06-10T02:33:08;100461.69;;;16.93;87.48
32733;BME280;11867;51.198;11.966;2023-06-10T02:34:31;100458.47;;;17.00;87.54
32733;BME280;11867;51.198;11.966;2023-06-10T02:35:55;100456.69;;;16.95;88.06
32733;BME280;11867;51.198;11.966;2023-06-10T02:37:17;100459.06;;;16.88;88.15
32733;BME280;11867;51.198;11.966;2023-06-10T02:38:41;100461.69;;;16.93;88.29
32733;BME280;11867;51.198;11.966;2023-06-10T02:40:05;100455.03;;;16.94;88.60
32733;BME280;11867;51.198;11.966;2023-06-10T02:41:27;100452.09;;;16.90;88.45
32733;BME280;11867;51.198;11.966;2023-06-10T02:42:50;100461.28;;;16.77;89.22
32733;BME280;11867;51.198;11.966;2023-06-10T02:44:13;100464.91;;;16.86;88.81
32733;BME280;11867;51.198;11.966;2023-06-10T02:45:35;100468.69;;;16.99;88.46
32733;BME280;11867;51.198;11.966;2023-06-10T02:46:58;100465.59;;;17.09;87.47
32733;BME280;11867;51.198;11.966;2023-06-10T02:48:20;100465.75;;;17.04;87.91
32733;BME280;11867;51.198;11.966;2023-06-10T02:49:43;100470.97;;;17.14;87.42
32733;BME280;11867;51.198;11.966;2023-06-10T02:51:06;100473.72;;;17.14;87.52
32733;BME280;11867;51.198;11.966;2023-06-10T02:52:29;100464.16;;;17.21;87.41
32733;BME280;11867;51.198;11.966;2023-06-10T02:53:53;100469.81;;;17.07;88.15
32733;BME280;11867;51.198;11.966;2023-06-10T02:55:16;100471.25;;;17.04;88.39
32733;BME280;11867;51.198;11.966;2023-06-10T02:56:38;100472.56;;;17.15;87.47
32733;BME280;11867;51.198;11.966;2023-06-10T02:58:03;100470.97;;;17.14;87.91
32733;BME280;11867;51.198;11.966;2023-06-10T02:59:25;100481.00;;;17.10;88.53
32733;BME280;11867;51.198;11.966;2023-06-10T03:00:50;100479.03;;;16.93;89.00
32733;BME280;11867;51.198;11.966;2023-06-10T03:02:12;100476.59;;;17.01;88.52
32733;BME280;11867;51.198;11.966;2023-06-10T03:03:35;100471.06;;;16.83;89.49
32733;BME280;11867;51.198;11.966;2023-06-10T03:05:00;100479.63;;;16.82;89.68
32733;BME280;11867;51.198;11.966;2023-06-10T03:06:22;100473.03;;;16.91;89.41
32733;BME280;11867;51.198;11.966;2023-06-10T03:07:46;100477.53;;;16.87;89.73
32733;BME280;11867;51.198;11.966;2023-06-10T03:09:11;100479.75;;;16.77;90.79
32733;BME280;11867;51.198;11.966;2023-06-10T03:10:33;100483.06;;;16.87;90.07
32733;BME280;11867;51.198;11.966;2023-06-10T03:11:56;100478.31;;;16.79;90.40
32733;BME280;11867;51.198;11.966;2023-06-10T03:13:18;100484.06;;;17.00;89.59
32733;BME280;11867;51.198;11.966;2023-06-10T03:14:41;100483.38;;;16.94;89.70
32733;BME280;11867;51.198;11.966;2023-06-10T03:16:04;100478.34;;;16.88;90.34
32733;BME280;11867;51.198;11.966;2023-06-10T03:17:26;100483.88;;;16.88;90.04
32733;BME280;11867;51.198;11.966;2023-06-10T03:18:49;100480.69;;;17.03;88.89
32733;BME280;11867;51.198;11.966;2023-06-10T03:20:12;100470.78;;;17.11;89.05
32733;BME280;11867;51.198;11.966;2023-06-10T03:21:37;100478.88;;;17.07;88.90
32733;BME280;11867;51.198;11.966;2023-06-10T03:23:01;100473.88;;;17.18;88.45
32733;BME280;11867;51.198;11.966;2023-06-10T03:24:24;100476.97;;;17.17;88.84
32733;BME280;11867;51.198;11.966;2023-06-10T03:25:47;100472.13;;;17.22;88.15
32733;BME280;11867;51.198;11.966;2023-06-10T03:27:10;100464.47;;;17.28;87.98
32733;BME280;11867;51.198;11.966;2023-06-10T03:28:33;100481.19;;;17.31;88.07
32733;BME280;11867;51.198;11.966;2023-06-10T03:29:56;100476.34;;;17.28;87.73
32733;BME280;11867;51.198;11.966;2023-06-10T03:31:18;100478.75;;;17.30;87.87
32733;BME280;11867;51.198;11.966;2023-06-10T03:32:41;100494.47;;;17.38;87.30
32733;BME280;11867;51.198;11.966;2023-06-10T03:34:03;100480.69;;;17.38;87.21
32733;BME280;11867;51.198;11.966;2023-06-10T03:35:26;100486.72;;;17.49;86.90
32733;BME280;11867;51.198;11.966;2023-06-10T03:36:48;100487.50;;;17.32;87.52
32733;BME280;11867;51.198;11.966;2023-06-10T03:38:11;100502.13;;;17.32;87.85
32733;BME280;11867;51.198;11.966;2023-06-10T03:39:34;100491.72;;;17.21;88.62
32733;BME280;11867;51.198;11.966;2023-06-10T03:40:57;100490.28;;;17.41;87.72
32733;BME280;11867;51.198;11.966;2023-06-10T03:42:19;100494.31;;;17.26;88.35
32733;BME280;11867;51.198;11.966;2023-06-10T03:43:42;100499.78;;;17.08;89.31
32733;BME280;11867;51.198;11.966;2023-06-10T03:45:06;100501.75;;;17.17;88.90
32733;BME280;11867;51.198;11.966;2023-06-10T03:46:29;100508.56;;;17.10;89.43
32733;BME280;11867;51.198;11.966;2023-06-10T03:47:52;100513.41;;;17.13;88.81
32733;BME280;11867;51.198;11.966;2023-06-10T03:49:15;100521.53;;;17.19;88.62
32733;BME280;11867;51.198;11.966;2023-06-10T03:50:38;100513.25;;;17.10;89.32
32733;BME280;11867;51.198;11.966;2023-06-10T03:52:00;100513.56;;;17.08;89.87
32733;BME280;11867;51.198;11.966;2023-06-10T03:53:23;100508.00;;;16.60;92.27
32733;BME280;11867;51.198;11.966;2023-06-10T03:54:47;100509.63;;;16.52;93.26
32733;BME280;11867;51.198;11.966;2023-06-10T03:56:10;100516.72;;;16.84;91.81
32733;BME280;11867;51.198;11.966;2023-06-10T03:57:32;100514.50;;;16.95;90.97
32733;BME280;11867;51.198;11.966;2023-06-10T03:58:55;100516.09;;;16.87;91.35
32733;BME280;11867;51.198;11.966;2023-06-10T04:00:17;100511.97;;;16.76;91.22
32733;BME280;11867;51.198;11.966;2023-06-10T04:01:42;100519.56;;;16.70;92.05
32733;BME280;11867;51.198;11.966;2023-06-10T04:03:05;100514.97;;;16.57;93.26
32733;BME280;11867;51.198;11.966;2023-06-10T04:04:31;100517.72;;;16.57;93.22
32733;BME280;11867;51.198;11.966;2023-06-10T04:05:53;100519.69;;;16.65;92.97
32733;BME280;11867;51.198;11.966;2023-06-10T04:07:15;100512.53;;;16.55;93.38
32733;BME280;11867;51.198;11.966;2023-06-10T04:08:40;100518.09;;;16.64;93.24
32733;BME280;11867;51.198;11.966;2023-06-10T04:10:07;100520.78;;;16.55;93.62
32733;BME280;11867;51.198;11.966;2023-06-10T04:11:29;100519.22;;;16.72;92.97
32733;BME280;11867;51.198;11.966;2023-06-10T04:12:54;100522.94;;;16.67;92.50
32733;BME280;11867;51.198;11.966;2023-06-10T04:14:16;100517.53;;;16.53;93.27
32733;BME280;11867;51.198;11.966;2023-06-10T04:15:39;100523.38;;;16.83;92.18
32733;BME280;11867;51.198;11.966;2023-06-10T04:17:04;100522.31;;;17.02;90.97
32733;BME280;11867;51.198;11.966;2023-06-10T04:18:28;100520.03;;;16.95;91.25
32733;BME280;11867;51.198;11.966;2023-06-10T04:19:51;100524.53;;;16.91;91.50
32733;BME280;11867;51.198;11.966;2023-06-10T04:21:14;100530.97;;;16.86;91.72
32733;BME280;11867;51.198;11.966;2023-06-10T04:22:36;100526.34;;;17.04;91.26
32733;BME280;11867;51.198;11.966;2023-06-10T04:23:59;100531.22;;;17.07;90.87
32733;BME280;11867;51.198;11.966;2023-06-10T04:25:24;100527.78;;;16.93;91.16
32733;BME280;11867;51.198;11.966;2023-06-10T04:26:46;100529.75;;;17.01;91.21
32733;BME280;11867;51.198;11.966;2023-06-10T04:28:08;100530.97;;;16.86;92.11
32733;BME280;11867;51.198;11.966;2023-06-10T04:29:30;100537.31;;;16.87;92.29
32733;BME280;11867;51.198;11.966;2023-06-10T04:30:53;100534.63;;;17.04;91.07
32733;BME280;11867;51.198;11.966;2023-06-10T04:32:16;100537.03;;;16.97;91.78
32733;BME280;11867;51.198;11.966;2023-06-10T04:33:38;100540.56;;;16.89;91.59
32733;BME280;11867;51.198;11.966;2023-06-10T04:35:02;100542.06;;;16.95;91.67
32733;BME280;11867;51.198;11.966;2023-06-10T04:36:24;100542.44;;;16.80;92.98
32733;BME280;11867;51.198;11.966;2023-06-10T04:37:47;100538.19;;;16.73;93.23
32733;BME280;11867;51.198;11.966;2023-06-10T04:39:10;100536.69;;;16.59;93.83
32733;BME280;11867;51.198;11.966;2023-06-10T04:40:33;100538.66;;;16.67;94.11
32733;BME280;11867;51.198;11.966;2023-06-10T04:41:56;100537.41;;;16.73;93.10
32733;BME280;11867;51.198;11.966;2023-06-10T04:43:19;100545.06;;;16.53;94.61
32733;BME280;11867;51.198;11.966;2023-06-10T04:44:42;100540.28;;;16.68;93.88
32733;BME280;11867;51.198;11.966;2023-06-10T04:46:05;100544.34;;;16.70;93.96
32733;BME280;11867;51.198;11.966;2023-06-10T04:47:29;100541.91;;;16.69;94.21
32733;BME280;11867;51.198;11.966;2023-06-10T04:48:55;100532.47;;;16.61;94.80
32733;BME280;11867;51.198;11.966;2023-06-10T04:50:18;100534.53;;;16.55;95.05
32733;BME280;11867;51.198;11.966;2023-06-10T04:51:41;100542.97;;;16.28;96.57
32733;BME280;11867;51.198;11.966;2023-06-10T04:53:04;100540.44;;;16.09;98.71
32733;BME280;11867;51.198;11.966;2023-06-10T04:54:26;100538.63;;;16.27;97.60
32733;BME280;11867;51.198;11.966;2023-06-10T04:55:50;100534.19;;;16.17;98.01
32733;BME280;11867;51.198;11.966;2023-06-10T04:57:12;100539.28;;;16.32;97.73
32733;BME280;11867;51.198;11.966;2023-06-10T04:58:35;100539.06;;;16.51;96.51
32733;BME280;11867;51.198;11.966;2023-06-10T04:59:56;100539.88;;;16.52;95.59
32733;BME280;11867;51.198;11.966;2023-06-10T05:01:20;100537.34;;;16.64;94.92
32733;BME280;11867;51.198;11.966;2023-06-10T05:02:43;100536.22;;;16.65;95.08
32733;BME280;11867;51.198;11.966;2023-06-10T05:04:06;100533.84;;;16.72;94.69
32733;BME280;11867;51.198;11.966;2023-06-10T05:05:28;100534.41;;;16.61;95.73
32733;BME280;11867;51.198;11.966;2023-06-10T05:06:51;100534.09;;;16.85;94.23
32733;BME280;11867;51.198;11.966;2023-06-10T05:08:14;100537.38;;;17.04;93.65
32733;BME280;11867;51.198;11.966;2023-06-10T05:09:37;100536.22;;;16.97;93.39
32733;BME280;11867;51.198;11.966;2023-06-10T05:11:02;100535.28;;;17.01;93.15
32733;BME280;11867;51.198;11.966;2023-06-10T05:12:24;100547.28;;;17.14;93.46
32733;BME280;11867;51.198;11.966;2023-06-10T05:13:48;100540.53;;;17.29;91.87
32733;BME280;11867;51.198;11.966;2023-06-10T05:15:10;100540.16;;;17.22;92.86
32733;BME280;11867;51.198;11.966;2023-06-10T05:16:33;100540.22;;;17.39;92.05
32733;BME280;11867;51.198;11.966;2023-06-10T05:17:56;100536.66;;;17.47;91.70
32733;BME280;11867;51.198;11.966;2023-06-10T05:19:19;100537.81;;;17.64;90.17
32733;BME280;11867;51.198;11.966;2023-06-10T05:20:42;100535.88;;;17.55;90.07
32733;BME280;11867;51.198;11.966;2023-06-10T05:22:06;100547.22;;;17.63;89.49
32733;BME280;11867;51.198;11.966;2023-06-10T05:23:28;100532.28;;;17.72;89.46
32733;BME280;11867;51.198;11.966;2023-06-10T05:24:51;100537.63;;;17.78;89.28
32733;BME280;11867;51.198;11.966;2023-06-10T05:26:16;100538.47;;;17.78;89.95
32733;BME280;11867;51.198;11.966;2023-06-10T05:27:39;100545.59;;;17.62;90.48
32733;BME280;11867;51.198;11.966;2023-06-10T05:29:04;100541.88;;;17.75;89.76
32733;BME280;11867;51.198;11.966;2023-06-10T05:30:27;100547.56;;;17.70;90.15
32733;BME280;11867;51.198;11.966;2023-06-10T05:31:50;100537.00;;;17.63;90.46
32733;BME280;11867;51.198;11.966;2023-06-10T05:33:13;100543.50;;;17.67;91.17
32733;BME280;11867;51.198;11.966;2023-06-10T05:34:35;100546.34;;;17.36;92.04
32733;BME280;11867;51.198;11.966;2023-06-10T05:35:57;100536.97;;;17.46;91.49
32733;BME280;11867;51.198;11.966;2023-06-10T05:37:19;100539.91;;;17.58;90.59
32733;BME280;11867;51.198;11.966;2023-06-10T05:38:42;100537.81;;;17.64;90.94
32733;BME280;11867;51.198;11.966;2023-06-10T05:40:05;100544.25;;;17.33;92.82
32733;BME280;11867;51.198;11.966;2023-06-10T05:41:30;100547.78;;;17.16;94.44
32733;BME280;11867;51.198;11.966;2023-06-10T05:42:53;100549.59;;;17.38;93.05
32733;BME280;11867;51.198;11.966;2023-06-10T05:44:16;100552.84;;;17.31;92.87
32733;BME280;11867;51.198;11.966;2023-06-10T05:45:37;100540.53;;;17.38;93.18
32733;BME280;11867;51.198;11.966;2023-06-10T05:47:02;100539.72;;;17.37;93.10
32733;BME280;11867;51.198;11.966;2023-06-10T05:48:25;100542.97;;;17.57;92.40
32733;BME280;11867;51.198;11.966;2023-06-10T05:49:47;100538.81;;;17.85;89.89
32733;BME280;11867;51.198;11.966;2023-06-10T05:51:11;100541.72;;;17.98;90.06
32733;BME280;11867;51.198;11.966;2023-06-10T05:52:34;100539.59;;;18.12;89.39
32733;BME280;11867;51.198;11.966;2023-06-10T05:53:57;100542.94;;;18.44;87.47
32733;BME280;11867;51.198;11.966;2023-06-10T05:55:20;100540.22;;;18.35;88.80
32733;BME280;11867;51.198;11.966;2023-06-10T05:56:43;100538.47;;;18.13;88.89
32733;BME280;11867;51.198;11.966;2023-06-10T05:58:06;100545.31;;;18.07;89.14
32733;BME280;11867;51.198;11.966;2023-06-10T05:59:28;100545.78;;;18.00;90.08
32733;BME280;11867;51.198;11.966;2023-06-10T06:00:51;100551.31;;;18.09;89.40
32733;BME280;11867;51.198;11.966;2023-06-10T06:02:13;100552.13;;;18.09;89.46
32733;BME280;11867;51.198;11.966;2023-06-10T06:03:36;100549.03;;;18.02;89.92
32733;BME280;11867;51.198;11.966;2023-06-10T06:04:58;100554.88;;;18.01;89.77
32733;BME280;11867;51.198;11.966;2023-06-10T06:06:21;100562.16;;;18.14;89.64
32733;BME280;11867;51.198;11.966;2023-06-10T06:07:44;100560.56;;;18.13;89.42
32733;BME280;11867;51.198;11.966;2023-06-10T06:09:06;100554.53;;;18.02;89.30
32733;BME280;11867;51.198;11.966;2023-06-10T06:10:30;100554.06;;;18.00;89.69
32733;BME280;11867;51.198;11.966;2023-06-10T06:11:53;100551.59;;;17.81;91.06
32733;BME280;11867;51.198;11.966;2023-06-10T06:13:16;100556.16;;;18.12;91.05
32733;BME280;11867;51.198;11.966;2023-06-10T06:14:38;100551.69;;;18.46;89.04
32733;BME280;11867;51.198;11.966;2023-06-10T06:16:01;100552.31;;;18.60;86.92
32733;BME280;11867;51.198;11.966;2023-06-10T06:17:24;100553.28;;;18.64;86.80
32733;BME280;11867;51.198;11.966;2023-06-10T06:18:46;100552.66;;;18.50;87.93
32733;BME280;11867;51.198;11.966;2023-06-10T06:20:10;100561.91;;;18.63;87.01
32733;BME280;11867;51.198;11.966;2023-06-10T06:21:33;100557.84;;;18.60;87.54
32733;BME280;11867;51.198;11.966;2023-06-10T06:22:56;100554.44;;;18.63;87.44
32733;BME280;11867;51.198;11.966;2023-06-10T06:24:18;100563.84;;;18.62;87.57
32733;BME280;11867;51.198;11.966;2023-06-10T06:25:42;100555.72;;;18.66;86.50
32733;BME280;11867;51.198;11.966;2023-06-10T06:27:05;100555.03;;;18.78;86.19
32733;BME280;11867;51.198;11.966;2023-06-10T06:28:28;100557.16;;;18.72;86.27
32733;BME280;11867;51.198;11.966;2023-06-10T06:29:52;100563.00;;;18.70;87.34
32733;BME280;11867;51.198;11.966;2023-06-10T06:31:16;100562.50;;;18.86;86.79
32733;BME280;11867;51.198;11.966;2023-06-10T06:32:39;100563.50;;;18.81;87.10
32733;BME280;11867;51.198;11.966;2023-06-10T06:34:01;100558.94;;;18.76;86.80
32733;BME280;11867;51.198;11.966;2023-06-10T06:35:23;100563.38;;;18.60;87.08
32733;BME280;11867;51.198;11.966;2023-06-10T06:36:46;100561.41;;;18.69;87.42
32733;BME280;11867;51.198;11.966;2023-06-10T06:38:09;100566.91;;;18.69;87.21
32733;BME280;11867;51.198;11.966;2023-06-10T06:39:32;100564.22;;;18.99;87.18
32733;BME280;11867;51.198;11.966;2023-06-10T06:40:55;100563.78;;;19.27;86.33
32733;BME280;11867;51.198;11.966;2023-06-10T06:42:20;100562.16;;;19.26;85.88
32733;BME280;11867;51.198;11.966;2023-06-10T06:43:43;100571.63;;;19.46;84.62
32733;BME280;11867;51.198;11.966;2023-06-10T06:45:06;100565.41;;;19.49;84.72
32733;BME280;11867;51.198;11.966;2023-06-10T06:46:29;100565.69;;;19.35;85.29
32733;BME280;11867;51.198;11.966;2023-06-10T06:47:51;100571.66;;;19.07;86.13
32733;BME280;11867;51.198;11.966;2023-06-10T06:49:14;100563.22;;;19.04;86.71
32733;BME280;11867;51.198;11.966;2023-06-10T06:50:36;100563.16;;;18.91;86.87
32733;BME280;11867;51.198;11.966;2023-06-10T06:51:59;100566.41;;;18.76;87.13
32733;BME280;11867;51.198;11.966;2023-06-10T06:53:22;100563.00;;;18.70;87.48
32733;BME280;11867;51.198;11.966;2023-06-10T06:54:45;100557.81;;;18.78;87.46
32733;BME280;11867;51.198;11.966;2023-06-10T06:56:07;100562.84;;;18.75;87.52
32733;BME280;11867;51.198;11.966;2023-06-10T06:57:31;100570.63;;;18.82;88.46
32733;BME280;11867;51.198;11.966;2023-06-10T06:58:54;100560.66;;;18.99;87.62
32733;BME280;11867;51.198;11.966;2023-06-10T07:00:19;100560.47;;;19.04;87.69
32733;BME280;11867;51.198;11.966;2023-06-10T07:01:41;100558.09;;;19.23;87.04
32733;BME280;11867;51.198;11.966;2023-06-10T07:03:04;100563.09;;;19.30;87.45
32733;BME280;11867;51.198;11.966;2023-06-10T07:04:26;100568.56;;;19.39;85.27
32733;BME280;11867;51.198;11.966;2023-06-10T07:05:50;100568.63;;;19.30;85.25
32733;BME280;11867;51.198;11.966;2023-06-10T07:07:13;100564.72;;;19.31;86.20
32733;BME280;11867;51.198;11.966;2023-06-10T07:08:36;100573.91;;;19.14;87.40
32733;BME280;11867;51.198;11.966;2023-06-10T07:09:59;100568.72;;;19.12;87.71